sensor_id;sensor_type;location;lat;lon;timestamp;pressure;altitude;pressure_sealevel;temperature
18704;BMP180;9481;48.796;9.210;2022-12-22T00:02:02;96004.00;;;15.50
18704;BMP180;9481;48.796;9.210;2022-12-22T00:04:48;96002.00;;;15.40
18704;BMP180;9481;48.796;9.210;2022-12-22T00:07:33;96000.00;;;15.40
18704;BMP180;9481;48.796;9.210;2022-12-22T00:10:17;95991.00;;;15.40
18704;BMP180;9481;48.796;9.210;2022-12-22T00:13:03;95989.00;;;15.40
18704;BMP180;9481;48.796;9.210;2022-12-22T00:15:49;95992.00;;;15.30
18704;BMP180;9481;48.796;9.210;2022-12-22T00:18:33;95991.00;;;15.30
18704;BMP180;9481;48.796;9.210;2022-12-22T00:21:17;95986.00;;;15.30
18704;BMP180;9481;48.796;9.210;2022-12-22T00:24:02;95980.00;;;15.30
18704;BMP180;9481;48.796;9.210;2022-12-22T00:26:46;95991.00;;;15.20
18704;BMP180;9481;48.796;9.210;2022-12-22T00:29:40;95988.00;;;15.20
18704;BMP180;9481;48.796;9.210;2022-12-22T00:32:31;95985.00;;;15.20
18704;BMP180;9481;48.796;9.210;2022-12-22T00:35:21;95975.00;;;15.10
18704;BMP180;9481;48.796;9.210;2022-12-22T00:38:20;95982.00;;;15.10
18704;BMP180;9481;48.796;9.210;2022-12-22T00:41:05;95988.00;;;15.10
18704;BMP180;9481;48.796;9.210;2022-12-22T00:43:49;95981.00;;;15.10
18704;BMP180;9481;48.796;9.210;2022-12-22T00:46:38;95995.00;;;15.10
18704;BMP180;9481;48.796;9.210;2022-12-22T00:49:25;95998.00;;;15.10
18704;BMP180;9481;48.796;9.210;2022-12-22T00:52:11;96001.00;;;15.10
18704;BMP180;9481;48.796;9.210;2022-12-22T00:54:56;95994.00;;;15.10
18704;BMP180;9481;48.796;9.210;2022-12-22T00:57:42;95990.00;;;15.10
18704;BMP180;9481;48.796;9.210;2022-12-22T01:00:27;95988.00;;;15.10
18704;BMP180;9481;48.796;9.210;2022-12-22T01:03:12;95987.00;;;15.10
18704;BMP180;9481;48.796;9.210;2022-12-22T01:06:00;95980.00;;;15.10
18704;BMP180;9481;48.796;9.210;2022-12-22T01:08:46;95980.00;;;15.10
18704;BMP180;9481;48.796;9.210;2022-12-22T01:11:32;95973.00;;;15.10
18704;BMP180;9481;48.796;9.210;2022-12-22T01:14:17;95972.00;;;15.10
18704;BMP180;9481;48.796;9.210;2022-12-22T01:17:01;95959.00;;;15.10
18704;BMP180;9481;48.796;9.210;2022-12-22T01:19:45;95977.00;;;15.00
18704;BMP180;9481;48.796;9.210;2022-12-22T01:22:29;95979.00;;;15.00
18704;BMP180;9481;48.796;9.210;2022-12-22T01:25:19;95983.00;;;15.00
18704;BMP180;9481;48.796;9.210;2022-12-22T01:28:04;95976.00;;;15.00
18704;BMP180;9481;48.796;9.210;2022-12-22T01:30:49;95975.00;;;15.00
18704;BMP180;9481;48.796;9.210;2022-12-22T01:33:34;95979.00;;;15.00
18704;BMP180;9481;48.796;9.210;2022-12-22T01:36:19;95981.00;;;15.00
18704;BMP180;9481;48.796;9.210;2022-12-22T01:39:03;95978.00;;;15.00
18704;BMP180;9481;48.796;9.210;2022-12-22T01:41:48;95966.00;;;15.00
18704;BMP180;9481;48.796;9.210;2022-12-22T01:44:32;95948.00;;;15.00
18704;BMP180;9481;48.796;9.210;2022-12-22T01:50:31;95931.00;;;14.90
18704;BMP180;9481;48.796;9.210;2022-12-22T01:53:24;95949.00;;;14.90
18704;BMP180;9481;48.796;9.210;2022-12-22T01:56:10;95937.00;;;14.90
18704;BMP180;9481;48.796;9.210;2022-12-22T01:58:59;95932.00;;;14.90
18704;BMP180;9481;48.796;9.210;2022-12-22T02:01:44;95922.00;;;14.90
18704;BMP180;9481;48.796;9.210;2022-12-22T02:04:35;95919.00;;;14.90
18704;BMP180;9481;48.796;9.210;2022-12-22T02:14:28;95930.00;;;14.90
18704;BMP180;9481;48.796;9.210;2022-12-22T02:17:39;95918.00;;;14.90
18704;BMP180;9481;48.796;9.210;2022-12-22T02:21:08;95923.00;;;14.90
18704;BMP180;9481;48.796;9.210;2022-12-22T02:26:59;95919.00;;;14.90
18704;BMP180;9481;48.796;9.210;2022-12-22T02:29:58;95936.00;;;14.90
18704;BMP180;9481;48.796;9.210;2022-12-22T02:32:45;95936.00;;;14.90
18704;BMP180;9481;48.796;9.210;2022-12-22T02:35:44;95940.00;;;14.90
18704;BMP180;9481;48.796;9.210;2022-12-22T02:38:49;95944.00;;;14.90
18704;BMP180;9481;48.796;9.210;2022-12-22T02:42:06;95943.00;;;14.90
18704;BMP180;9481;48.796;9.210;2022-12-22T02:45:32;95937.00;;;14.90
18704;BMP180;9481;48.796;9.210;2022-12-22T02:48:55;95938.00;;;14.80
18704;BMP180;9481;48.796;9.210;2022-12-22T02:51:47;95926.00;;;14.90
18704;BMP180;9481;48.796;9.210;2022-12-22T02:54:33;95915.00;;;14.90
18704;BMP180;9481;48.796;9.210;2022-12-22T02:57:19;95904.00;;;14.90
18704;BMP180;9481;48.796;9.210;2022-12-22T03:00:05;95898.00;;;14.90
18704;BMP180;9481;48.796;9.210;2022-12-22T03:02:50;95916.00;;;14.90
18704;BMP180;9481;48.796;9.210;2022-12-22T03:05:34;95916.00;;;14.90
18704;BMP180;9481;48.796;9.210;2022-12-22T03:08:18;95906.00;;;14.90
18704;BMP180;9481;48.796;9.210;2022-12-22T03:11:02;95918.00;;;14.90
18704;BMP180;9481;48.796;9.210;2022-12-22T03:13:46;95909.00;;;14.90
18704;BMP180;9481;48.796;9.210;2022-12-22T03:16:31;95915.00;;;14.90
18704;BMP180;9481;48.796;9.210;2022-12-22T03:19:15;95905.00;;;14.90
18704;BMP180;9481;48.796;9.210;2022-12-22T03:21:59;95903.00;;;14.90
18704;BMP180;9481;48.796;9.210;2022-12-22T03:24:43;95887.00;;;14.90
18704;BMP180;9481;48.796;9.210;2022-12-22T03:27:28;95874.00;;;14.90
18704;BMP180;9481;48.796;9.210;2022-12-22T03:29:53;95885.00;;;14.90
18704;BMP180;9481;48.796;9.210;2022-12-22T03:32:19;95875.00;;;14.90
18704;BMP180;9481;48.796;9.210;2022-12-22T03:34:45;95880.00;;;14.90
18704;BMP180;9481;48.796;9.210;2022-12-22T03:37:10;95873.00;;;14.90
18704;BMP180;9481;48.796;9.210;2022-12-22T03:39:36;95867.00;;;14.90
18704;BMP180;9481;48.796;9.210;2022-12-22T03:42:02;95851.00;;;15.00
18704;BMP180;9481;48.796;9.210;2022-12-22T03:44:46;95844.00;;;15.00
18704;BMP180;9481;48.796;9.210;2022-12-22T03:47:31;95849.00;;;14.90
18704;BMP180;9481;48.796;9.210;2022-12-22T03:49:56;95843.00;;;15.00
18704;BMP180;9481;48.796;9.210;2022-12-22T03:52:22;95839.00;;;15.00
18704;BMP180;9481;48.796;9.210;2022-12-22T03:54:48;95850.00;;;15.00
18704;BMP180;9481;48.796;9.210;2022-12-22T03:57:14;95841.00;;;15.00
18704;BMP180;9481;48.796;9.210;2022-12-22T03:59:39;95851.00;;;15.00
18704;BMP180;9481;48.796;9.210;2022-12-22T04:02:06;95850.00;;;15.00
18704;BMP180;9481;48.796;9.210;2022-12-22T04:04:32;95848.00;;;15.00
18704;BMP180;9481;48.796;9.210;2022-12-22T04:06:57;95846.00;;;15.00
18704;BMP180;9481;48.796;9.210;2022-12-22T04:09:23;95839.00;;;15.10
18704;BMP180;9481;48.796;9.210;2022-12-22T04:11:51;95844.00;;;15.10
18704;BMP180;9481;48.796;9.210;2022-12-22T04:14:35;95840.00;;;15.10
18704;BMP180;9481;48.796;9.210;2022-12-22T04:17:03;95837.00;;;15.10
18704;BMP180;9481;48.796;9.210;2022-12-22T04:19:29;95827.00;;;15.10
18704;BMP180;9481;48.796;9.210;2022-12-22T04:21:55;95818.00;;;15.10
18704;BMP180;9481;48.796;9.210;2022-12-22T04:24:21;95822.00;;;15.10
18704;BMP180;9481;48.796;9.210;2022-12-22T04:26:47;95823.00;;;15.10
18704;BMP180;9481;48.796;9.210;2022-12-22T04:29:13;95811.00;;;15.10
18704;BMP180;9481;48.796;9.210;2022-12-22T04:31:38;95821.00;;;15.10
18704;BMP180;9481;48.796;9.210;2022-12-22T04:34:04;95818.00;;;15.10
18704;BMP180;9481;48.796;9.210;2022-12-22T04:36:29;95807.00;;;15.10
18704;BMP180;9481;48.796;9.210;2022-12-22T04:38:55;95795.00;;;15.20
18704;BMP180;9481;48.796;9.210;2022-12-22T04:41:21;95797.00;;;15.20
18704;BMP180;9481;48.796;9.210;2022-12-22T04:43:46;95796.00;;;15.20
18704;BMP180;9481;48.796;9.210;2022-12-22T04:46:12;95793.00;;;15.20
18704;BMP180;9481;48.796;9.210;2022-12-22T04:48:38;95792.00;;;15.10
18704;BMP180;9481;48.796;9.210;2022-12-22T04:51:03;95785.00;;;15.20
18704;BMP180;9481;48.796;9.210;2022-12-22T04:53:30;95791.00;;;15.10
18704;BMP180;9481;48.796;9.210;2022-12-22T04:56:03;95774.00;;;15.10
18704;BMP180;9481;48.796;9.210;2022-12-22T04:58:31;95777.00;;;15.10
18704;BMP180;9481;48.796;9.210;2022-12-22T05:01:08;95775.00;;;15.10
18704;BMP180;9481;48.796;9.210;2022-12-22T05:03:34;95772.00;;;15.10
18704;BMP180;9481;48.796;9.210;2022-12-22T05:06:00;95778.00;;;15.10
18704;BMP180;9481;48.796;9.210;2022-12-22T05:08:25;95785.00;;;15.10
18704;BMP180;9481;48.796;9.210;2022-12-22T05:10:51;95777.00;;;15.10
18704;BMP180;9481;48.796;9.210;2022-12-22T05:13:17;95792.00;;;15.10
18704;BMP180;9481;48.796;9.210;2022-12-22T05:15:42;95781.00;;;15.10
18704;BMP180;9481;48.796;9.210;2022-12-22T05:18:08;95793.00;;;15.10
18704;BMP180;9481;48.796;9.210;2022-12-22T05:20:35;95792.00;;;15.10
18704;BMP180;9481;48.796;9.210;2022-12-22T05:23:00;95796.00;;;15.10
18704;BMP180;9481;48.796;9.210;2022-12-22T05:25:26;95788.00;;;15.10
18704;BMP180;9481;48.796;9.210;2022-12-22T05:27:52;95785.00;;;15.10
18704;BMP180;9481;48.796;9.210;2022-12-22T05:30:18;95788.00;;;15.10
18704;BMP180;9481;48.796;9.210;2022-12-22T05:32:45;95776.00;;;15.10
18704;BMP180;9481;48.796;9.210;2022-12-22T05:35:11;95784.00;;;15.10
18704;BMP180;9481;48.796;9.210;2022-12-22T05:37:37;95775.00;;;15.10
18704;BMP180;9481;48.796;9.210;2022-12-22T05:40:04;95789.00;;;15.10
18704;BMP180;9481;48.796;9.210;2022-12-22T05:42:30;95788.00;;;15.10
18704;BMP180;9481;48.796;9.210;2022-12-22T05:45:17;95784.00;;;15.10
18704;BMP180;9481;48.796;9.210;2022-12-22T05:47:46;95772.00;;;15.10
18704;BMP180;9481;48.796;9.210;2022-12-22T05:50:15;95772.00;;;15.10
18704;BMP180;9481;48.796;9.210;2022-12-22T05:52:41;95781.00;;;15.20
18704;BMP180;9481;48.796;9.210;2022-12-22T05:55:08;95785.00;;;15.10
18704;BMP180;9481;48.796;9.210;2022-12-22T05:57:34;95779.00;;;15.10
18704;BMP180;9481;48.796;9.210;2022-12-22T06:00:00;95781.00;;;15.20
18704;BMP180;9481;48.796;9.210;2022-12-22T06:02:26;95774.00;;;15.20
18704;BMP180;9481;48.796;9.210;2022-12-22T06:04:51;95775.00;;;15.10
18704;BMP180;9481;48.796;9.210;2022-12-22T06:07:17;95770.00;;;15.10
18704;BMP180;9481;48.796;9.210;2022-12-22T06:09:43;95784.00;;;15.10
18704;BMP180;9481;48.796;9.210;2022-12-22T06:12:09;95782.00;;;15.10
18704;BMP180;9481;48.796;9.210;2022-12-22T06:14:34;95776.00;;;15.20
18704;BMP180;9481;48.796;9.210;2022-12-22T06:17:00;95783.00;;;15.10
18704;BMP180;9481;48.796;9.210;2022-12-22T06:19:26;95782.00;;;15.10
18704;BMP180;9481;48.796;9.210;2022-12-22T06:21:51;95773.00;;;15.10
18704;BMP180;9481;48.796;9.210;2022-12-22T06:24:17;95771.00;;;15.10
18704;BMP180;9481;48.796;9.210;2022-12-22T06:26:43;95761.00;;;15.10
18704;BMP180;9481;48.796;9.210;2022-12-22T06:29:08;95777.00;;;15.10
18704;BMP180;9481;48.796;9.210;2022-12-22T06:31:34;95775.00;;;15.10
18704;BMP180;9481;48.796;9.210;2022-12-22T06:34:00;95777.00;;;15.10
18704;BMP180;9481;48.796;9.210;2022-12-22T06:36:25;95782.00;;;15.10
18704;BMP180;9481;48.796;9.210;2022-12-22T06:38:51;95784.00;;;15.10
18704;BMP180;9481;48.796;9.210;2022-12-22T06:41:17;95779.00;;;15.10
18704;BMP180;9481;48.796;9.210;2022-12-22T06:44:02;95771.00;;;15.10
18704;BMP180;9481;48.796;9.210;2022-12-22T06:46:28;95771.00;;;15.10
18704;BMP180;9481;48.796;9.210;2022-12-22T06:48:54;95765.00;;;15.00
18704;BMP180;9481;48.796;9.210;2022-12-22T06:51:19;95772.00;;;15.00
18704;BMP180;9481;48.796;9.210;2022-12-22T06:53:45;95774.00;;;15.10
18704;BMP180;9481;48.796;9.210;2022-12-22T06:56:10;95775.00;;;15.00
18704;BMP180;9481;48.796;9.210;2022-12-22T06:58:36;95776.00;;;15.00
18704;BMP180;9481;48.796;9.210;2022-12-22T07:01:02;95772.00;;;15.00
18704;BMP180;9481;48.796;9.210;2022-12-22T07:03:28;95763.00;;;15.00
18704;BMP180;9481;48.796;9.210;2022-12-22T07:05:53;95782.00;;;15.00
18704;BMP180;9481;48.796;9.210;2022-12-22T07:08:19;95785.00;;;15.10
18704;BMP180;9481;48.796;9.210;2022-12-22T07:10:45;95781.00;;;15.10
18704;BMP180;9481;48.796;9.210;2022-12-22T07:13:33;95797.00;;;15.00
18704;BMP180;9481;48.796;9.210;2022-12-22T07:16:05;95797.00;;;15.10
18704;BMP180;9481;48.796;9.210;2022-12-22T07:18:34;95799.00;;;15.10
18704;BMP180;9481;48.796;9.210;2022-12-22T07:21:04;95802.00;;;15.10
18704;BMP180;9481;48.796;9.210;2022-12-22T07:23:30;95781.00;;;15.10
18704;BMP180;9481;48.796;9.210;2022-12-22T07:25:56;95805.00;;;15.10
18704;BMP180;9481;48.796;9.210;2022-12-22T07:28:22;95806.00;;;15.20
18704;BMP180;9481;48.796;9.210;2022-12-22T07:30:49;95798.00;;;15.20
18704;BMP180;9481;48.796;9.210;2022-12-22T07:33:16;95802.00;;;15.20
18704;BMP180;9481;48.796;9.210;2022-12-22T07:35:41;95812.00;;;15.20
18704;BMP180;9481;48.796;9.210;2022-12-22T07:38:07;95813.00;;;15.20
18704;BMP180;9481;48.796;9.210;2022-12-22T07:40:33;95816.00;;;15.20
18704;BMP180;9481;48.796;9.210;2022-12-22T07:43:00;95825.00;;;15.20
18704;BMP180;9481;48.796;9.210;2022-12-22T07:45:27;95825.00;;;15.20
18704;BMP180;9481;48.796;9.210;2022-12-22T07:47:59;95838.00;;;15.20
18704;BMP180;9481;48.796;9.210;2022-12-22T07:50:25;95838.00;;;15.20
18704;BMP180;9481;48.796;9.210;2022-12-22T07:52:59;95835.00;;;15.20
18704;BMP180;9481;48.796;9.210;2022-12-22T07:55:27;95836.00;;;15.20
18704;BMP180;9481;48.796;9.210;2022-12-22T07:57:54;95837.00;;;15.10
18704;BMP180;9481;48.796;9.210;2022-12-22T08:00:22;95777.00;;;15.10
18704;BMP180;9481;48.796;9.210;2022-12-22T08:02:49;95789.00;;;15.10
18704;BMP180;9481;48.796;9.210;2022-12-22T08:05:16;95789.00;;;15.10
18704;BMP180;9481;48.796;9.210;2022-12-22T08:07:41;95774.00;;;15.10
18704;BMP180;9481;48.796;9.210;2022-12-22T08:10:08;95784.00;;;15.10
18704;BMP180;9481;48.796;9.210;2022-12-22T08:12:34;95789.00;;;15.10
18704;BMP180;9481;48.796;9.210;2022-12-22T08:15:00;95801.00;;;15.00
18704;BMP180;9481;48.796;9.210;2022-12-22T08:17:27;95806.00;;;15.00
18704;BMP180;9481;48.796;9.210;2022-12-22T08:19:54;95792.00;;;15.00
18704;BMP180;9481;48.796;9.210;2022-12-22T08:22:21;95791.00;;;15.00
18704;BMP180;9481;48.796;9.210;2022-12-22T08:24:51;95779.00;;;15.00
18704;BMP180;9481;48.796;9.210;2022-12-22T08:27:31;95777.00;;;14.90
18704;BMP180;9481;48.796;9.210;2022-12-22T08:30:03;95791.00;;;15.00
18704;BMP180;9481;48.796;9.210;2022-12-22T08:32:29;95789.00;;;15.00
18704;BMP180;9481;48.796;9.210;2022-12-22T08:34:55;95771.00;;;15.00
18704;BMP180;9481;48.796;9.210;2022-12-22T08:37:24;95775.00;;;15.00
18704;BMP180;9481;48.796;9.210;2022-12-22T08:39:57;95780.00;;;15.10
18704;BMP180;9481;48.796;9.210;2022-12-22T08:42:25;95781.00;;;15.10
18704;BMP180;9481;48.796;9.210;2022-12-22T08:44:51;95795.00;;;15.10
18704;BMP180;9481;48.796;9.210;2022-12-22T08:47:21;95801.00;;;15.10
18704;BMP180;9481;48.796;9.210;2022-12-22T08:49:48;95792.00;;;15.10
18704;BMP180;9481;48.796;9.210;2022-12-22T08:52:15;95809.00;;;15.10
18704;BMP180;9481;48.796;9.210;2022-12-22T08:54:41;95819.00;;;15.20
18704;BMP180;9481;48.796;9.210;2022-12-22T08:57:08;95820.00;;;15.20
18704;BMP180;9481;48.796;9.210;2022-12-22T08:59:34;95820.00;;;15.20
18704;BMP180;9481;48.796;9.210;2022-12-22T09:02:00;95817.00;;;15.20
18704;BMP180;9481;48.796;9.210;2022-12-22T09:04:31;95825.00;;;15.30
18704;BMP180;9481;48.796;9.210;2022-12-22T09:06:57;95824.00;;;15.30
18704;BMP180;9481;48.796;9.210;2022-12-22T09:09:24;95827.00;;;15.30
18704;BMP180;9481;48.796;9.210;2022-12-22T09:11:50;95817.00;;;15.40
18704;BMP180;9481;48.796;9.210;2022-12-22T09:14:16;95815.00;;;15.40
18704;BMP180;9481;48.796;9.210;2022-12-22T09:16:42;95827.00;;;15.50
18704;BMP180;9481;48.796;9.210;2022-12-22T09:19:08;95838.00;;;15.50
18704;BMP180;9481;48.796;9.210;2022-12-22T09:21:35;95850.00;;;15.50
18704;BMP180;9481;48.796;9.210;2022-12-22T09:24:01;95838.00;;;15.50
18704;BMP180;9481;48.796;9.210;2022-12-22T09:26:29;95835.00;;;15.50
18704;BMP180;9481;48.796;9.210;2022-12-22T09:28:55;95834.00;;;15.40
18704;BMP180;9481;48.796;9.210;2022-12-22T09:31:23;95834.00;;;15.40
18704;BMP180;9481;48.796;9.210;2022-12-22T09:33:50;95831.00;;;15.40
18704;BMP180;9481;48.796;9.210;2022-12-22T09:36:21;95844.00;;;15.30
18704;BMP180;9481;48.796;9.210;2022-12-22T09:38:47;95844.00;;;15.30
18704;BMP180;9481;48.796;9.210;2022-12-22T09:41:25;95851.00;;;15.20
18704;BMP180;9481;48.796;9.210;2022-12-22T09:43:55;95856.00;;;15.20
18704;BMP180;9481;48.796;9.210;2022-12-22T09:46:24;95849.00;;;15.20
18704;BMP180;9481;48.796;9.210;2022-12-22T09:48:52;95867.00;;;15.20
18704;BMP180;9481;48.796;9.210;2022-12-22T09:51:20;95841.00;;;15.20
18704;BMP180;9481;48.796;9.210;2022-12-22T09:53:52;95842.00;;;15.10
18704;BMP180;9481;48.796;9.210;2022-12-22T09:56:19;95843.00;;;15.20
18704;BMP180;9481;48.796;9.210;2022-12-22T09:58:45;95842.00;;;15.10
18704;BMP180;9481;48.796;9.210;2022-12-22T10:01:36;95834.00;;;15.10
18704;BMP180;9481;48.796;9.210;2022-12-22T10:04:12;95843.00;;;15.10
18704;BMP180;9481;48.796;9.210;2022-12-22T10:07:01;95843.00;;;15.10
18704;BMP180;9481;48.796;9.210;2022-12-22T10:09:31;95855.00;;;15.10
18704;BMP180;9481;48.796;9.210;2022-12-22T10:12:00;95849.00;;;15.10
18704;BMP180;9481;48.796;9.210;2022-12-22T10:14:37;95857.00;;;15.10
18704;BMP180;9481;48.796;9.210;2022-12-22T10:17:14;95868.00;;;15.10
18704;BMP180;9481;48.796;9.210;2022-12-22T10:19:40;95853.00;;;15.10
18704;BMP180;9481;48.796;9.210;2022-12-22T10:22:29;95865.00;;;15.10
18704;BMP180;9481;48.796;9.210;2022-12-22T10:24:58;95864.00;;;15.10
18704;BMP180;9481;48.796;9.210;2022-12-22T10:27:33;95877.00;;;15.10
18704;BMP180;9481;48.796;9.210;2022-12-22T10:30:23;95872.00;;;15.10
18704;BMP180;9481;48.796;9.210;2022-12-22T10:33:16;95885.00;;;15.10
18704;BMP180;9481;48.796;9.210;2022-12-22T10:35:50;95890.00;;;15.10
18704;BMP180;9481;48.796;9.210;2022-12-22T10:38:28;95894.00;;;15.10
18704;BMP180;9481;48.796;9.210;2022-12-22T10:40:58;95888.00;;;15.10
18704;BMP180;9481;48.796;9.210;2022-12-22T10:43:29;95882.00;;;15.20
18704;BMP180;9481;48.796;9.210;2022-12-22T10:45:57;95892.00;;;15.20
18704;BMP180;9481;48.796;9.210;2022-12-22T10:48:36;95884.00;;;15.20
18704;BMP180;9481;48.796;9.210;2022-12-22T10:51:06;95888.00;;;15.20
18704;BMP180;9481;48.796;9.210;2022-12-22T10:53:49;95886.00;;;15.20
18704;BMP180;9481;48.796;9.210;2022-12-22T10:56:29;95890.00;;;15.20
18704;BMP180;9481;48.796;9.210;2022-12-22T11:01:34;95883.00;;;15.30
18704;BMP180;9481;48.796;9.210;2022-12-22T11:06:48;95891.00;;;15.30
18704;BMP180;9481;48.796;9.210;2022-12-22T11:09:14;95883.00;;;15.30
18704;BMP180;9481;48.796;9.210;2022-12-22T11:11:57;95872.00;;;15.20
18704;BMP180;9481;48.796;9.210;2022-12-22T11:14:48;95886.00;;;15.30
18704;BMP180;9481;48.796;9.210;2022-12-22T11:20:12;95866.00;;;15.30
18704;BMP180;9481;48.796;9.210;2022-12-22T11:23:00;95877.00;;;15.30
18704;BMP180;9481;48.796;9.210;2022-12-22T11:25:33;95868.00;;;15.40
18704;BMP180;9481;48.796;9.210;2022-12-22T11:28:40;95875.00;;;15.50
18704;BMP180;9481;48.796;9.210;2022-12-22T11:31:45;95866.00;;;15.50
18704;BMP180;9481;48.796;9.210;2022-12-22T11:34:53;95863.00;;;15.50
18704;BMP180;9481;48.796;9.210;2022-12-22T11:37:52;95881.00;;;15.50
18704;BMP180;9481;48.796;9.210;2022-12-22T11:40:44;95868.00;;;15.60
18704;BMP180;9481;48.796;9.210;2022-12-22T11:46:14;95868.00;;;15.60
18704;BMP180;9481;48.796;9.210;2022-12-22T11:55:00;95887.00;;;15.80
18704;BMP180;9481;48.796;9.210;2022-12-22T11:58:03;95865.00;;;15.90
18704;BMP180;9481;48.796;9.210;2022-12-22T12:00:44;95872.00;;;16.00
18704;BMP180;9481;48.796;9.210;2022-12-22T12:06:37;95883.00;;;16.40
18704;BMP180;9481;48.796;9.210;2022-12-22T12:09:35;95874.00;;;16.50
18704;BMP180;9481;48.796;9.210;2022-12-22T12:12:20;95869.00;;;16.90
18704;BMP180;9481;48.796;9.210;2022-12-22T12:18:28;95880.00;;;18.40
18704;BMP180;9481;48.796;9.210;2022-12-22T12:24:34;95896.00;;;19.60
18704;BMP180;9481;48.796;9.210;2022-12-22T12:27:30;95896.00;;;20.10
18704;BMP180;9481;48.796;9.210;2022-12-22T12:30:29;95898.00;;;20.70
18704;BMP180;9481;48.796;9.210;2022-12-22T12:33:10;95913.00;;;21.20
18704;BMP180;9481;48.796;9.210;2022-12-22T12:36:00;95899.00;;;21.80
18704;BMP180;9481;48.796;9.210;2022-12-22T12:38:50;95905.00;;;22.30
18704;BMP180;9481;48.796;9.210;2022-12-22T12:41:46;95901.00;;;22.30
18704;BMP180;9481;48.796;9.210;2022-12-22T12:44:16;95915.00;;;22.20
18704;BMP180;9481;48.796;9.210;2022-12-22T12:46:55;95919.00;;;21.90
18704;BMP180;9481;48.796;9.210;2022-12-22T12:52:07;95926.00;;;21.70
18704;BMP180;9481;48.796;9.210;2022-12-22T12:54:46;95925.00;;;21.30
18704;BMP180;9481;48.796;9.210;2022-12-22T12:57:28;95925.00;;;20.80
18704;BMP180;9481;48.796;9.210;2022-12-22T12:59:58;95922.00;;;20.70
18704;BMP180;9481;48.796;9.210;2022-12-22T13:08:16;95931.00;;;20.10
18704;BMP180;9481;48.796;9.210;2022-12-22T13:21:21;95970.00;;;21.50
18704;BMP180;9481;48.796;9.210;2022-12-22T13:26:36;95976.00;;;22.80
18704;BMP180;9481;48.796;9.210;2022-12-22T13:31:59;95982.00;;;22.50
18704;BMP180;9481;48.796;9.210;2022-12-22T13:34:44;95981.00;;;22.00
18704;BMP180;9481;48.796;9.210;2022-12-22T13:37:25;95991.00;;;21.50
18704;BMP180;9481;48.796;9.210;2022-12-22T13:40:28;95998.00;;;20.90
18704;BMP180;9481;48.796;9.210;2022-12-22T13:43:08;95995.00;;;20.50
18704;BMP180;9481;48.796;9.210;2022-12-22T13:45:45;95988.00;;;20.10
18704;BMP180;9481;48.796;9.210;2022-12-22T13:48:34;95983.00;;;19.70
18704;BMP180;9481;48.796;9.210;2022-12-22T13:51:07;95990.00;;;19.50
18704;BMP180;9481;48.796;9.210;2022-12-22T13:53:46;95994.00;;;19.20
18704;BMP180;9481;48.796;9.210;2022-12-22T13:58:52;96011.00;;;18.80
18704;BMP180;9481;48.796;9.210;2022-12-22T14:01:20;96016.00;;;18.60
18704;BMP180;9481;48.796;9.210;2022-12-22T14:04:00;96011.00;;;18.50
18704;BMP180;9481;48.796;9.210;2022-12-22T14:06:38;96022.00;;;18.30
18704;BMP180;9481;48.796;9.210;2022-12-22T14:09:19;96025.00;;;18.20
18704;BMP180;9481;48.796;9.210;2022-12-22T14:11:55;96025.00;;;18.10
18704;BMP180;9481;48.796;9.210;2022-12-22T14:14:28;96017.00;;;18.00
18704;BMP180;9481;48.796;9.210;2022-12-22T14:16:58;96015.00;;;17.90
18704;BMP180;9481;48.796;9.210;2022-12-22T14:19:30;96022.00;;;17.80
18704;BMP180;9481;48.796;9.210;2022-12-22T14:22:09;96026.00;;;17.70
18704;BMP180;9481;48.796;9.210;2022-12-22T14:24:47;96015.00;;;17.60
18704;BMP180;9481;48.796;9.210;2022-12-22T14:27:35;96020.00;;;17.50
18704;BMP180;9481;48.796;9.210;2022-12-22T14:30:05;96020.00;;;17.50
18704;BMP180;9481;48.796;9.210;2022-12-22T14:35:03;96020.00;;;17.60
18704;BMP180;9481;48.796;9.210;2022-12-22T14:37:28;96014.00;;;17.60
18704;BMP180;9481;48.796;9.210;2022-12-22T14:39:55;96019.00;;;17.60
18704;BMP180;9481;48.796;9.210;2022-12-22T14:42:21;96032.00;;;17.60
18704;BMP180;9481;48.796;9.210;2022-12-22T14:44:47;96023.00;;;17.60
18704;BMP180;9481;48.796;9.210;2022-12-22T14:47:22;96034.00;;;17.50
18704;BMP180;9481;48.796;9.210;2022-12-22T14:50:17;96037.00;;;17.40
18704;BMP180;9481;48.796;9.210;2022-12-22T14:52:47;96047.00;;;17.40
18704;BMP180;9481;48.796;9.210;2022-12-22T14:55:40;96050.00;;;17.30
18704;BMP180;9481;48.796;9.210;2022-12-22T15:00:38;96040.00;;;17.20
18704;BMP180;9481;48.796;9.210;2022-12-22T15:03:33;96052.00;;;17.10
18704;BMP180;9481;48.796;9.210;2022-12-22T15:09:23;96042.00;;;16.90
18704;BMP180;9481;48.796;9.210;2022-12-22T15:12:10;96053.00;;;16.90
18704;BMP180;9481;48.796;9.210;2022-12-22T15:14:36;96044.00;;;16.80
18704;BMP180;9481;48.796;9.210;2022-12-22T15:17:05;96071.00;;;16.70
18704;BMP180;9481;48.796;9.210;2022-12-22T15:19:34;96065.00;;;16.70
18704;BMP180;9481;48.796;9.210;2022-12-22T15:22:00;96072.00;;;16.60
18704;BMP180;9481;48.796;9.210;2022-12-22T15:24:26;96055.00;;;16.60
18704;BMP180;9481;48.796;9.210;2022-12-22T15:26:53;96061.00;;;16.50
18704;BMP180;9481;48.796;9.210;2022-12-22T15:29:19;96054.00;;;16.50
18704;BMP180;9481;48.796;9.210;2022-12-22T15:31:45;96064.00;;;16.40
18704;BMP180;9481;48.796;9.210;2022-12-22T15:34:21;96059.00;;;16.30
18704;BMP180;9481;48.796;9.210;2022-12-22T15:36:47;96063.00;;;16.30
18704;BMP180;9481;48.796;9.210;2022-12-22T15:39:16;96060.00;;;16.30
18704;BMP180;9481;48.796;9.210;2022-12-22T15:41:43;96061.00;;;16.30
18704;BMP180;9481;48.796;9.210;2022-12-22T15:44:09;96062.00;;;16.20
18704;BMP180;9481;48.796;9.210;2022-12-22T15:46:37;96062.00;;;16.20
18704;BMP180;9481;48.796;9.210;2022-12-22T15:49:03;96068.00;;;16.10
18704;BMP180;9481;48.796;9.210;2022-12-22T15:51:31;96069.00;;;16.10
18704;BMP180;9481;48.796;9.210;2022-12-22T15:53:58;96064.00;;;16.10
18704;BMP180;9481;48.796;9.210;2022-12-22T15:56:29;96067.00;;;16.00
18704;BMP180;9481;48.796;9.210;2022-12-22T15:58:56;96075.00;;;16.00
18704;BMP180;9481;48.796;9.210;2022-12-22T16:01:22;96064.00;;;16.00
18704;BMP180;9481;48.796;9.210;2022-12-22T16:03:47;96062.00;;;16.00
18704;BMP180;9481;48.796;9.210;2022-12-22T16:06:16;96059.00;;;16.00
18704;BMP180;9481;48.796;9.210;2022-12-22T16:08:49;96059.00;;;16.00
18704;BMP180;9481;48.796;9.210;2022-12-22T16:11:17;96065.00;;;16.00
18704;BMP180;9481;48.796;9.210;2022-12-22T16:13:43;96065.00;;;16.00
18704;BMP180;9481;48.796;9.210;2022-12-22T16:16:10;96054.00;;;15.90
18704;BMP180;9481;48.796;9.210;2022-12-22T16:18:36;96068.00;;;15.90
18704;BMP180;9481;48.796;9.210;2022-12-22T16:21:12;96047.00;;;15.80
18704;BMP180;9481;48.796;9.210;2022-12-22T16:23:41;96050.00;;;15.80